»·PEaware :: N1127N KSMX-KSBP

N1127N :: KSMX-KSBP

FLIGHT INFORMATION

Flight Status: Arrived
Operator: Privately registered:
United States
More flights under this callsign
Pilot: Alexander M. (19327)
Aircraft: CESSNA 550 CITATION 2/S2/BRAVO
(C550)
More flights by this aircraft type
Origin: KSMX Santa Maria Pub/Capt Hancock
United States
Destination: KSBP San Luis Co Regl
United States
More flights between these airports :: More routes between these airports
Route: +MQO
File this flight plan on PilotEdge
Remarks: Pilotedge I-10 Rating...on stream! twitch.tv / allaboutflight
Altitude:
(Current/Filed)
4,000ft
Speed:
(Current/Filed)
220kts
Departed: 08-Nov-18 05:37 PM
Arrived: 08-Nov-18 06:36 PM
Distance/Time
Traveled:
22nm/0:59
Distance/Time
To Go:
Arrived

Flight Plot

Page will automatically refresh every two minutes.


Map Options




Map Legend


Flown Route
Filed Route
Departure Airport
Arrival Airport
Navaid (VOR, NDB)
Fix

Horizontal Profiles

Position Reports

Time Latitude Longitude Heading Altitude Ground
Speed
08-Nov-18 17:39 35.038060 -120.571235 265 3026ft 217kts
08-Nov-18 17:40 34.994345 -120.607693 160 3977ft 221kts
08-Nov-18 17:41 34.962723 -120.548307 110 3981ft 217kts
08-Nov-18 17:42 34.949706 -120.482259 59 3981ft 212kts
08-Nov-18 17:43 34.999760 -120.477578 316 3982ft 219kts
08-Nov-18 17:44 35.032386 -120.535685 298 3990ft 218kts
08-Nov-18 17:45 35.037212 -120.598406 194 4295ft 176kts
08-Nov-18 17:46 35.009075 -120.560258 114 4218ft 167kts
08-Nov-18 17:47 35.029597 -120.525273 3 3983ft 183kts
08-Nov-18 17:48 35.078560 -120.524605 340 4054ft 188kts
08-Nov-18 17:49 35.078667 -120.572024 192 4053ft 191kts
08-Nov-18 17:50 35.033348 -120.549243 149 3980ft 174kts
08-Nov-18 17:51 34.992112 -120.521113 148 3981ft 167kts
08-Nov-18 17:52 34.951910 -120.493714 148 3981ft 164kts
08-Nov-18 17:54 34.897890 -120.498936 327 3982ft 156kts
08-Nov-18 17:55 34.937742 -120.518269 333 3981ft 156kts
08-Nov-18 17:56 34.973394 -120.513659 67 3983ft 152kts
08-Nov-18 17:57 34.954334 -120.470975 136 3982ft 160kts
08-Nov-18 17:58 34.921328 -120.436973 136 3981ft 160kts
08-Nov-18 17:59 34.883268 -120.432543 246 3982ft 164kts
08-Nov-18 18:00 34.897704 -120.481092 301 3981ft 160kts
08-Nov-18 18:01 34.919948 -120.528147 303 3981ft 161kts
08-Nov-18 18:02 34.944816 -120.572430 336 4029ft 151kts
08-Nov-18 18:03 34.961769 -120.545927 112 4007ft 163kts
08-Nov-18 18:04 34.947071 -120.496175 63 4035ft 153kts
08-Nov-18 18:05 34.981107 -120.514339 320 4037ft 165kts
08-Nov-18 18:06 35.006934 -120.559226 301 4049ft 170kts
08-Nov-18 18:07 35.006238 -120.602234 143 4120ft 167kts
08-Nov-18 18:08 34.976251 -120.554979 121 3900ft 191kts
08-Nov-18 18:09 34.941897 -120.505343 108 3981ft 192kts
08-Nov-18 18:10 34.971053 -120.466316 351 3982ft 192kts
08-Nov-18 18:11 35.006008 -120.514091 293 4021ft 198kts
08-Nov-18 18:12 35.031217 -120.573372 307 3988ft 201kts
08-Nov-18 18:13 35.008220 -120.616623 158 3982ft 202kts
08-Nov-18 18:14 34.972925 -120.565466 124 3981ft 199kts
08-Nov-18 18:15 34.939099 -120.583547 288 3982ft 200kts
08-Nov-18 18:16 34.977785 -120.630278 321 3981ft 198kts
08-Nov-18 18:17 35.017748 -120.671807 321 3980ft 198kts
08-Nov-18 18:18 35.059610 -120.715446 321 3980ft 198kts
08-Nov-18 18:19 35.106889 -120.728615 8 3981ft 193kts
08-Nov-18 18:20 35.153433 -120.731436 351 3981ft 195kts
08-Nov-18 18:21 35.206329 -120.745419 347 3981ft 195kts
08-Nov-18 18:22 35.253063 -120.770456 288 3979ft 179kts
08-Nov-18 18:23 35.259102 -120.830167 278 3773ft 196kts
08-Nov-18 18:24 35.292518 -120.881308 322 3481ft 200kts
08-Nov-18 18:25 35.326500 -120.933073 276 3477ft 202kts
08-Nov-18 18:26 35.287946 -120.942551 113 3481ft 194kts
08-Nov-18 18:27 35.264942 -120.885056 97 3483ft 192kts
08-Nov-18 18:28 35.258180 -120.821601 92 3243ft 202kts
08-Nov-18 18:29 35.249591 -120.754290 118 2784ft 194kts
08-Nov-18 18:30 35.205990 -120.729456 142 2735ft 178kts
08-Nov-18 18:31 35.173220 -120.687262 141 2719ft 190kts
08-Nov-18 18:32 35.130955 -120.650686 141 2789ft 160kts
08-Nov-18 18:33 35.097928 -120.617161 108 2873ft 142kts
08-Nov-18 18:34 35.124035 -120.596952 354 2759ft 139kts
08-Nov-18 18:35 35.162893 -120.607807 348 2421ft 142kts
08-Nov-18 18:36 35.196386 -120.615608 354 1532ft 94kts
08-Nov-18 18:37 35.218586 -120.619534 353 845ft 80kts
08-Nov-18 18:38 35.236542 -120.639489 309 188ft 67kts
08-Nov-18 18:39 35.241148 -120.646990 0 187ft 9kts
08-Nov-18 18:40 35.240368 -120.644206 123 187ft 7kts
08-Nov-18 18:41 35.238538 -120.641198 125 187ft 12kts
08-Nov-18 18:42 35.238015 -120.639324 44 187ft 0kts
08-Nov-18 18:43 35.238015 -120.639324 44 187ft 0kts
08-Nov-18 18:44 35.238015 -120.639324 44 187ft 0kts
08-Nov-18 18:45 35.238015 -120.639324 44 187ft 0kts
08-Nov-18 18:46 35.238015 -120.639324 44 187ft 0kts
08-Nov-18 18:47 35.238015 -120.639324 44 187ft 0kts
08-Nov-18 18:48 35.238015 -120.639324 44 187ft 0kts
08-Nov-18 18:49 35.238015 -120.639324 44 187ft 0kts
08-Nov-18 18:50 35.238015 -120.639324 44 187ft 0kts
08-Nov-18 18:51 35.238015 -120.639324 44 187ft 0kts
08-Nov-18 18:52 35.238015 -120.639324 44 187ft 0kts
08-Nov-18 18:53 35.238015 -120.639324 44 187ft 0kts

Navigation Log

Ident Type
1. KSMX Airport
2. MQO Navaid
3. KSBP Airport